This demonstration page uses our WeatherBlox Daily Observations layout. Learn more.

Left ArrowRight Arrow

Hourly Observations for October 31, 2018

Temp ( °F °C ) Dew Point ( °F °C ) Humidity (%) Winds ( mph kmh ) Pressure ( in mb ) Visibility ( mi km ) Precip ( " mm )
12:54 am 00:54 Clear 49 9.4 37 2.8 64 64 NNW 7 11 30.03 1017 10 16.0934 0 0
1:54 am 01:54 Clear 47 8.3 36 2.2 66 66 NNW 7 11 30.04 1017 10 16.0934 0 0
2:54 am 02:54 Clear 43 6.1 36 2.2 76 76 NNW 3 6 30.05 1018 10 16.0934 0 0
3:54 am 03:54 Clear 41 5 35 1.7 79 79 NNW 3 6 30.05 1018 10 16.0934 0 0
4:54 am 04:54 Clear 38 3.3 34 1.1 86 86 N 5 7 30.06 1018 10 16.0934 0 0
5:54 am 05:54 Clear 39 3.9 35 1.7 86 86 NNE 3 6 30.06 1018 10 16.0934 0 0
6:54 am 06:54 Mostly Clear 41 5 36 2.2 82 82 Calm 30.1 1019 10 16.0934 0 0
7:54 am 07:54 Clear 42 5.6 37 2.8 82 82 Calm 30.1 1019 10 16.0934 0 0
8:54 am 08:54 Partly Cloudy 44 6.7 38 3.3 79 79 Calm 30.12 1020 10 16.0934 0 0
9:54 am 09:54 Sunny 48 8.9 39 3.9 71 71 NW 3 6 30.12 1020 10 16.0934 0 0
10:54 am 10:54 Sunny 52 11.1 39 3.9 61 61 NW 3 6 30.11 1020 10 16.0934 0 0
11:54 am 11:54 Sunny 54 12.2 39 3.9 57 57 WNW 6 9 30.09 1019 10 16.0934 0 0
12:54 pm 12:54 Sunny 56 13.3 39 3.9 53 53 WNW 5 7 30.09 1019 10 16.0934 0 0
1:54 pm 13:54 Sunny 58 14.4 36 2.2 44 44 WNW 5 7 30.06 1018 10 16.0934 0 0
2:54 pm 14:54 Sunny 59 15 34 1.1 39 39 WNW 3 6 30.02 1017 10 16.0934 0 0
3:54 pm 15:54 Sunny 60 15.6 33 0.6 36 36 N 3 6 30.02 1017 10 16.0934 0 0
4:54 pm 16:54 Sunny 60 15.6 33 0.6 36 36 NNW 6 9 30.01 1016 10 16.0934 0 0
5:54 pm 17:54 Sunny 56 13.3 34 1.1 44 44 N 3 6 30 1016 10 16.0934 0 0
6:54 pm 18:54 Clear 51 10.6 34 1.1 52 52 Calm 30.01 1016 10 16.0934 0 0
7:54 pm 19:54 Clear 49 9.4 36 2.2 61 61 Calm 30.01 1016 10 16.0934 0 0
8:54 pm 20:54 Clear 43 6.1 35 1.7 74 74 Calm 30.01 1016 9 14.48406 0 0
9:54 pm 21:54 Clear 39 3.9 34 1.1 82 82 Calm 30.01 1016 8 12.87472 0 0
10:54 pm 22:54 Clear 36 2.2 32 0 86 86 N 6 9 30 1016 8 12.87472 0 0
11:54 pm 23:54 Clear 40 4.4 33 0.6 77 77 NW 3 6 30 1016 7 11.26538 0 0

Powered by AerisWeather